This is the latest recevied weather packets stored in our database for station/object PY2XH-13. If no packets are shown the sender has not sent any weather packets the latest 10 day(s).
| Time | Temp. | Humidity | Pressure | Rain* | Wind** | Luminosity | Snow |
|---|---|---|---|---|---|---|---|
| 1788351364 | 20.56° C | 60% | 1034.2 hPa | - | - | - | - |
| 1788347765 | 20.56° C | 61% | 1033.9 hPa | - | - | - | - |
| 1788345965 | 20.56° C | 64% | 1033.5 hPa | - | - | - | - |
| 1788344164 | 20.56° C | 64% | 1033.3 hPa | - | - | - | - |
| 1788342365 | 20.56° C | 65% | 1032.9 hPa | - | - | - | - |
| 1788239765 | 23.33° C | 72% | 1025.9 hPa | - | - | - | - |
| 1788104764 | 25° C | 62% | 1028.6 hPa | - | - | - | - |
| 1788102965 | 25° C | 63% | 1029.1 hPa | - | - | - | - |
| 1788101165 | 25° C | 64% | 1029.8 hPa | - | - | - | - |
| 1788095764 | 24.44° C | 65% | 1031.6 hPa | - | - | - | - |
| 1788092164 | 25° C | 64% | 1031.1 hPa | - | - | - | - |
| 1788090364 | 25° C | 64% | 1030.9 hPa | - | - | - | - |
| 1788088564 | 25° C | 64% | 1030.5 hPa | - | - | - | - |
| 1788086764 | 24.44° C | 66% | 1030.2 hPa | - | - | - | - |
| 1788084964 | 23.89° C | 66% | 1030.3 hPa | - | - | - | - |
| 1788083164 | 23.89° C | 66% | 1029.9 hPa | - | - | - | - |
| 1788081364 | 25° C | 65% | 1029.6 hPa | - | - | - | - |
| 1788079564 | 25° C | 65% | 1029.3 hPa | - | - | - | - |
| 1788077765 | 25° C | 64% | 1028.7 hPa | - | - | - | - |
| 1788075964 | 25° C | 64% | 1028.5 hPa | - | - | - | - |
| 1788074164 | 25° C | 64% | 1028.2 hPa | - | - | - | - |
| 1788072365 | 25° C | 64% | 1028.1 hPa | - | - | - | - |
| 1788070564 | 25° C | 65% | 1028.1 hPa | - | - | - | - |
| 1788068764 | 25° C | 65% | 1028 hPa | - | - | - | - |
| 1788066964 | 25° C | 65% | 1027.6 hPa | - | - | - | - |
* Rain since midnight (hover to see other rain measurements)
** Current wind speed in m/s (hover to see current wind gust speed)